Latest METARs, TAFs and NOTAMs for LIRN


---------------------------------------------------------------------------
	(OBSERVATIONS)
LIRN 260150Z 00000KT 6000 NSC 19/18 Q1017 NOSIG=
LIRN 260120Z 00000KT 8000 NSC 19/18 Q1017 NOSIG=
LIRN 260050Z VRB01KT 8000 NSC 19/18 Q1017 NOSIG=
LIRN 260020Z VRB02KT 8000 NSC 19/18 Q1017 NOSIG=
LIRN 252350Z VRB01KT 8000 NSC 20/18 Q1017 NOSIG=
LIRN 252320Z 00000KT 8000 NSC 20/18 Q1017 NOSIG=
---------------------------------------------------------------------------
	(FC)
Sorry, FC For LIRN Not Found
---------------------------------------------------------------------------
	(TERMINAL AREA FORECAST)
LIRN 252300Z 2600/2624 VRB05KT 8000 SCT030
    TEMPO 2601/2605 2000 BR
    BECMG 2610/2612 21010KT
    BECMG 2617/2619 VRB05KT=
---------------------------------------------------------------------------
	(NOTAMS)


LIRN A1433/18 DME ASSOCIATED WITH ILS RWY24 UNSERVICEABLE DUE
    TO TECR REF AIP AD 2 LIRN 1-7. 05 MAR 14:14 2018 UNTIL 02
    JUN 23:59 2018 ESTIMATED. CREATED: 05 MAR 14:15 2018

LIRN A1687/18 LOCALIZER (ILS) RWY24 COVERAGE REDUCED TO 015DEG
    WI 17NM LEFT SIDE RCL. REF AIP AD 2 LIRN 1-7. 16 MAR 08:59
    2018 UNTIL 10 JUN 23:59 2018 ESTIMATED. CREATED: 16 MAR 08:59
    2018

LIRN A1688/18 TEANO VOR/DME 'TEA' FREQ 112.90MHZ CH 76X REMOTE
    STATUS INDICATOR NOT AVBL REF AIP AD 2 LIRN 1-9. 16 MAR 09:01
    2018 UNTIL 10 JUN 23:59 2018 ESTIMATED. CREATED: 16 MAR 09:02
    2018

LIRN A1695/18 ALL LIGHTS ON TAXIWAY 'TN' ON TEST. DURING NIGHT
    HOURS TAXI ALLOWED ONLY WITH FOLLOW-ME REF AIP AD 2 LIRN
    2-1. 16 MAR 10:29 2018 UNTIL 13 JUN 23:59 2018 ESTIMATED.
    CREATED: 16 MAR 10:29 2018

LIRN A1696/18 ALL LIGHTS ON TWY 'H' ON TEST. DURING NIGHT HOURS
    TAXI ALLOWED ONLY WITH FOLLOW-ME REF AIP AD 2 LIRN 2-1. 16
    MAR 10:31 2018 UNTIL 13 JUN 23:59 2018 ESTIMATED. CREATED:
    16 MAR 10:31 2018

LIRN A1746/18 TAXIWAY 'M' CLOSED REF AIP AD 2 LIRN 2-1. 19 MAR
    10:27 2018 UNTIL 16 JUN 04:00 2018 ESTIMATED. CREATED: 19
    MAR 10:27 2018

LIRN A1889/18 A-CDM (AIRPORT COLLABORATIVE DECISION MAKING) NAPOLI
    CAPODICHINO -FULL A-CDM OPERATIONS ACCORDING TO THE ITALIAN
    CIVIL AVIATION AUTHORITY PROVISION ENAC PROT 07/07/2017-0069678-P
    AND AIC 04/2017 START UP PROCEDURE CHG AS FOLLOWS: -IF TOBT
    (TARGET OFF-BLOCK TIME) CAN NO LONGER BE MET, AT ANY TIME,
    TOBT MUST BE UPDATED BY AO/GH (AIRCRAFT OPERATOR/GROUND HANDLER)
    -BEFORE REQUESTING ATC AND START UP CLEARANCE PILOT MUST
    RECEIVE 'READY' ISSUED BY APRON MANAGEMENT SERVICE UNIT ON
    FREQ 131.675MHZ AND CONFIRM IT TO GH. -IF AT TOBT PLUS 5
    MINUTES THE AIRCRAFT IS NOT READY, TOBT MUST BE UPDATED BY
    AIRCRAFT OPERATOR/GROUND HANDLER (AO/GH) -PREVIOUS ACTIONS
    COMPLETED, PILOT MUST MONITOR ATC GND FREQ 121.900MHZ WAITINGS
    FOR ATC AND START UP CLEARANCE. GND WILL PROVIDE CLEARANCE
    AT TSAT +/-5 ACCORDING TO PREVAILING TRAFFIC CONDITION. -GH
    WILL INFORM PILOT ON TSAT ASSIGNED AT LEAST ONE TIME DURING
    GROUND OPEATIONS. END PART 1 OF 2. 27 MAR 09:00 2018 UNTIL
    21 JUN 23:59 2018 ESTIMATED. CREATED: 23 MAR 12:02 2018

LIRN A1889/18 - APRON MANAGEMENT OFFICE WILL CONFIRM PILOT LAST
    TSAT ASSIGNED WHEN A 'READY' IS ISSUED. -PILOTS MUST TAKE
    NOTE OF LAST TSAT RECEIVED AND COMPLY WITH IT. -TSAT (TARGET
    START-UP APPROVAL TIME) WILL BE ISSUED ACCORDING TO RWY IN
    USE. PILOTS SHALL REPORT TO ATC ON FREQ 121.9MHZ (CALL SIGN
    'NAPOLI GROUND'), 20 MIN BEFORE TOBT, IF THEY NEED TO DEPART
    FROM A RWY NOT IN USE. IN THIS CASE TSAT WILL BE ISSUED 10MIN
    BEFORE TOBT. A PERM AND FULLY AUTOMATIC DATA EXCHANGE WITH
    THE NMOC (NETWORK MANAGER OPERATIONS CENTRE) WILL BE ESTABLISHED
    VIA DPI (DEPARTURE PLANNING INFORMATION) MSG. THIS DATA TRANSFER
    WILL ENABLE HIGHLY ACCURATE EARLY PREDICTIONS DEPARTURE TIMES.
    THIS WILL ALLOW FOR MORE ACCURATE AND EFFICIENT CALCULATION
    OF THE CTOT DUE TO THE USE OF LOCAL TARGET TAKE-OFF TIMES.
    THE BASIC NMOC PROCEDURES CONTINUE TO APPLY. THE NMOC WILL
    TAKE THESE LOCAL TARGET TAKE-OFF TIMES INTO CONSIDERATION
    FOR ATFCM PURPOSES AND WILL TRY TO ADJUST THE CTOT ACCORDINGLY.
    REF AIP AD 2 LIRN 1-10 END PART 2 OF 2. 27 MAR 09:00 2018
    UNTIL 21 JUN 23:59 2018 ESTIMATED. CREATED: 23 MAR 12:02
    2018

LIRN A2321/18 PAPI RWY24 LEFT SIDE UNSERVICEABLE. REF AIP AD
    2 LIRN 1-5. 11 APR 13:48 2018 UNTIL 09 JUL 22:00 2018 ESTIMATED.
    CREATED: 11 APR 13:48 2018

LIRN A2379/18 TRIGGER NOTAM-PERM AIP AIRAC AMDT 4/18 EFFECTIVE
    DATE 24 MAY 2018 NAPOLI/CAPODICHINO AD - AERODROME OSTACLES
    CHARTS TYPE 'A' AND 'B' UPDATED - REVIEW OF STAR - REVIEW
    OF INSTRUMENT APPROACH PROCEDURES - REVIEW OF SID AIRAC IS
    POSTED AND AVBL ON WEBSITE WWW.ENAV.IT. 24 MAY 00:00 2018
    UNTIL 06 JUN 23:59 2018. CREATED: 12 APR 14:54 2018

LIRN A3098/18 STOPBAR TAXIWAY 'H' UNSERVICEABLE DUE TO TECR REF
    AIP AD 2 LIRN 2-1. 10 MAY 12:21 2018 UNTIL 07 AUG 23:59 2018
    ESTIMATED. CREATED: 10 MAY 12:21 2018

LIRN A3245/18 APRON 2 CLOSED DUE TO WIP REF AIP AD 2 LIRN 2-1
    AND 2-7. 15 MAY 08:56 2018 UNTIL 15 JUN 14:00 2018 ESTIMATED.
    CREATED: 15 MAY 08:56 2018

LIRN A3329/18 PRESENCE OF MOBILE CRANE PENETRATING TRANSITIONAL
    SURFACE AND INNER HORIZONTAL SURFACE PSN COORD 405254.3N
    0141726.0E MAX ELEV 35.0M/114.8FT AGL 116.0M/380.6FT AMSL
    REF AOC TYPE B NR RN 2/1. 19 AND 26 0600-1500, 19 MAY 06:00
    2018 UNTIL 26 MAY 15:00 2018. CREATED: 17 MAY 14:33 2018

LIRN A3380/18 REF AIP ENR 1.10 'FLIGHT PLANS (PLN)' PARAGRAPH
    1 'FLIGHT PLAN' POINT 1.3 'PLN FILING SUBJECT TO IFPS SYSTEM'
    IN SUBPOINT 11 'FLIGHTS WITHIN ITALIAN FREE ROUTE AIRSPACE
    (FRAIT)' ADD NAPOLI/CAPODICHINO (LIRN) TO THE LIST OF AIRPORTS
    FOR WHICH MANDATORY CONNECTING ROUTES (TRANSITION ROUTING)
    ARE DEFINED FOR ARRIVAL. 24 MAY 00:00 2018 UNTIL PERM. CREATED:
    18 MAY 19:02 2018

LIRN A3586/18 CIRCLING GUIDANCE LIGHTS (CGL) RWY06 UNSERVICEABLE
    REF AIP AD 2 LIRN 2-1. 25 MAY 11:06 2018 UNTIL 09 AUG 23:59
    2018 ESTIMATED. CREATED: 25 MAY 11:07 2018

LIRN A4592/17 REF AIP AD 2 LIRN 1-12 ITEM 22 'FLIGHT PROCEDURES'
    BOX 4 'PROCEDURES FOR VFR FLIGHTS' PARAGRAPH 4.7 'VFR/N'
    CHANGE TO READ: AD LOCATED IN MOUNTAINOUS AREA. NIGHT VFR
    FLIGHT ALLOWED ONLY TO HEL. GROUND VISIBILITY SHALL NOT BE
    LESS THAN 8KM AND CEILING SHALL NOT BE LESS THAN 1500FT FOR
    TAKE-OFF, LANDING AND AND TRAFFIC CIRCUIT OPERATIONS. RMK:
    THE APPLICABLE METEOROLOGICAL MINIMA FOR HEMS (HEL EMERGENCY
    MEDICAL SERVICE) FLT ARE THOSE CONTAINED IN RELEVANT OPERATIONAL
    REGULATIONS. 10 JUL 09:31 2017 UNTIL PERM. CREATED: 10 JUL
    09:31 2017

LIRN A4665/17 REF AIP AD 2 LIRN 1-11 ITEM 22 'FLIGHT PROCEDURES'
    BOX 1 'GENERAL' POINT 2) CHANGE AS FOLLOWS: FLIGHT ACTIVITY
    FORBIDDEN FROM 2200 TO 0500 (2100-0400), EXCEPT FOR FLIGHTS
    AUTHORIZED BY AD OPERATOR. OTHER DATA UNCHANGED. 12 JUL 13:45
    2017 UNTIL PERM. CREATED: 12 JUL 13:45 2017

LIRN A4719/17 REF AIP AD 2 LIRN 3-1 (AOC TYPE A NR RN A1 2/1)
    AND AIP AD 2 LIRN 3-3 (AOC TYPE A NR RN A2 2/1) REFERRED
    TO RWY ON PROFILE VIEW MODIFY RWY END 06 ELEV CHG TO READ
    66.43 INSTEAD OF 64.30. 13 JUL 11:39 2017 UNTIL PERM. CREATED:
    13 JUL 11:39 2017

LIRN A8692/17 REF AIP GEN 3.5 'METEOROLOGICAL SERVICES' REFERRING
    TO 'NAPOLI CAPODICHINO (LIRN)' COLUMN 7 'OBSERVATION SITES'
    TRANSMISSOMETERS POINT 2) MID RWY24 COMPLETELY WITHDRAWN.
    21 DEC 19:06 2017 UNTIL PERM. CREATED: 21 DEC 19:06 2017

LIRN F0015/07 [DEFENSE ENERGY SUPPORT CENTER ADVISORY] FUEL AVAILABILITY
    NOT AVAILABLE PHONE AHEAD FOR FUEL AVAILABILITY. 12 JUL 10:20
    2020 UNTIL 01 AUG 25:20 2020

---------------------------------------------------------------------------